Kezdőlap
METAR-TAF:

METAR-TAF

Repülőterek :

Fourchambault

Nevers, Franciaország

földrajzi szélesség: 47-00N, földrajzi hosszúság: 003-06E, magasság: 180 m

Jelenlegi meteorológiai megfigyelések

A jelentés 25 perccel ezelõtt készült, 10:30 UTC
Nyugati szél 17 kt
Hőmérséklet 8°C
Páratartalom 87%
Légköri nyomás 1011 hPa
Látótávolság: 4700 m
esõ

METAR: LFQG 091030Z AUTO 26017KT 9999 4700 RA BKN019/// OVC025/// ///TCU 08/06 Q1011

Idő: 11:55 (10:55 UTC)


TAF: hiányzik

Meteorológiai megfigyelések és előrejelzések több, mint 4000 repülőtéren (METAR és TAF jelentéseket).

A térképen piros és sárga pontok jelzik az elérhető meteorológiai állomásokat.

Mozgassa az egeret a pont fölött, hogy megjelenjen az állomás neve.

Azután kattintson az időjárási megfigyelések és előrejelzések megtekintéséhez.

A térkép megváltoztatása: kattintson a fekete keresztel jelölt zöld gombra ráközelítéshez, a vonallal jelölt zöld gombra távolításhoz, vagy a zöld nyilakra a szomszédos térképek eléréséhez.


METAR-TAF: